Time;durP1;ratioP1;P1;durP2;ratioP2;P2;SDS_P1;SDS_P2;PMS_P1;PMS_P2;Temp;Humidity;BMP_temperature;BMP_pressure;BME280_temperature;BME280_humidity;BME280_pressure;Samples;Min_cycle;Max_cycle;Signal;HPM_P1;HPM_P2
2021/11/14 00:01:20;;;;;;;;;;;20.80;62.10;;;;;;4954520;28;1300;-71
2021/11/14 00:03:46;;;;;;;;;;;20.80;62.10;;;;;;4969336;28;1177;-71
2021/11/14 00:06:12;;;;;;;;;;;20.80;62.20;;;;;;4969616;28;1348;-71
2021/11/14 00:08:37;;;;;;;;;;;20.80;62.20;;;;;;4969601;28;1363;-71
2021/11/14 00:11:09;;;;;;;;;;;20.80;62.20;;;;;;4969600;28;1342;-71
2021/11/14 00:13:35;;;;;;;;;;;20.70;62.20;;;;;;4954124;28;1902;-70
2021/11/14 00:16:01;;;;;;;;;;;20.70;62.20;;;;;;4954715;28;1270;-70
2021/11/14 00:18:26;;;;;;;;;;;20.70;62.20;;;;;;4954304;28;1305;-70
2021/11/14 00:20:52;;;;;;;;;;;20.70;62.30;;;;;;4954546;28;1307;-71
2021/11/14 00:23:17;;;;;;;;;;;20.70;62.30;;;;;;4954465;28;1177;-70
2021/11/14 00:25:42;;;;;;;;;;;20.70;62.30;;;;;;4954618;29;1339;-71
2021/11/14 00:28:09;;;;;;;;;;;20.70;62.30;;;;;;4954734;29;1331;-71
2021/11/14 00:30:35;;;;;;;;;;;20.70;62.40;;;;;;4954342;28;1348;-70
2021/11/14 00:33:00;;;;;;;;;;;20.70;62.40;;;;;;4955213;28;1327;-70
2021/11/14 00:35:25;;;;;;;;;;;20.70;62.40;;;;;;4953215;29;1903;-70
2021/11/14 00:37:51;;;;;;;;;;;20.70;62.40;;;;;;4954412;29;1374;-70
2021/11/14 00:40:21;;;;;;;;;;;20.70;62.50;;;;;;4954724;28;1184;-70
2021/11/14 00:42:46;;;;;;;;;;;20.70;62.50;;;;;;4954017;28;1387;-70
2021/11/14 00:45:12;;;;;;;;;;;20.70;62.60;;;;;;4954177;29;1298;-70
2021/11/14 00:47:37;;;;;;;;;;;20.70;62.50;;;;;;4954146;29;1283;-70
2021/11/14 00:50:07;;;;;;;;;;;20.70;62.60;;;;;;4954385;29;1257;-70
2021/11/14 00:52:33;;;;;;;;;;;20.70;62.60;;;;;;4954173;28;1323;-69
2021/11/14 00:54:58;;;;;;;;;;;20.70;62.60;;;;;;4954476;28;1977;-70
2021/11/14 00:57:23;;;;;;;;;;;20.60;62.60;;;;;;4954184;29;1295;-70
2021/11/14 00:59:49;;;;;;;;;;;20.70;62.70;;;;;;4956098;28;1357;-69
2021/11/14 01:02:14;;;;;;;;;;;20.60;62.60;;;;;;4957301;28;1360;-70
2021/11/14 01:04:40;;;;;;;;;;;20.60;62.70;;;;;;4957923;29;1348;-69
2021/11/14 01:07:05;;;;;;;;;;;20.60;62.70;;;;;;4972578;28;1355;-69
2021/11/14 01:09:31;;;;;;;;;;;20.60;62.70;;;;;;4957783;29;1243;-69
2021/11/14 01:11:56;;;;;;;;;;;20.60;62.70;;;;;;4957403;28;1371;-70
2021/11/14 01:14:21;;;;;;;;;;;20.60;62.70;;;;;;4957412;29;1911;-70
2021/11/14 01:16:47;;;;;;;;;;;20.60;62.80;;;;;;4972382;28;1314;-69
2021/11/14 01:19:12;;;;;;;;;;;20.60;62.80;;;;;;4957525;29;1263;-70
2021/11/14 01:21:38;;;;;;;;;;;20.60;62.80;;;;;;4971950;28;1271;-70
2021/11/14 01:24:03;;;;;;;;;;;20.60;62.80;;;;;;4957433;28;1345;-70
2021/11/14 01:26:29;;;;;;;;;;;20.60;62.80;;;;;;4957450;28;1337;-70
2021/11/14 01:28:54;;;;;;;;;;;20.60;62.90;;;;;;4957201;29;1309;-70
2021/11/14 01:31:20;;;;;;;;;;;20.50;62.80;;;;;;4956744;28;1360;-70
2021/11/14 01:33:45;;;;;;;;;;;20.60;63.00;;;;;;4975516;28;1988;-70
2021/11/14 01:36:11;;;;;;;;;;;20.50;62.80;;;;;;4957275;29;1385;-70
2021/11/14 01:38:36;;;;;;;;;;;20.50;62.90;;;;;;4957465;29;1384;-70
2021/11/14 01:41:03;;;;;;;;;;;20.50;62.90;;;;;;4971705;28;1293;-70
2021/11/14 01:43:30;;;;;;;;;;;20.50;62.90;;;;;;4971871;28;1038;-70
2021/11/14 01:45:56;;;;;;;;;;;20.50;62.90;;;;;;4957200;28;1170;-70
2021/11/14 01:48:21;;;;;;;;;;;20.50;63.00;;;;;;4955931;29;1330;-70
2021/11/14 01:50:46;;;;;;;;;;;20.50;62.90;;;;;;4956048;28;1362;-70
2021/11/14 01:53:12;;;;;;;;;;;20.50;63.00;;;;;;4955535;29;1906;-71
2021/11/14 01:55:41;;;;;;;;;;;20.50;63.00;;;;;;4956981;28;1255;-70
2021/11/14 01:58:07;;;;;;;;;;;20.50;63.00;;;;;;4956787;28;1322;-70
2021/11/14 02:00:34;;;;;;;;;;;20.50;63.00;;;;;;4956650;29;1251;-70
2021/11/14 02:02:59;;;;;;;;;;;20.50;63.00;;;;;;4956436;28;1222;-70
2021/11/14 02:05:25;;;;;;;;;;;20.50;63.00;;;;;;4956632;29;1340;-70
2021/11/14 02:07:51;;;;;;;;;;;20.50;63.10;;;;;;4955703;28;1098;-70
2021/11/14 02:10:16;;;;;;;;;;;20.50;63.10;;;;;;4956194;28;1303;-70
2021/11/14 02:12:42;;;;;;;;;;;20.50;63.10;;;;;;4956316;28;1267;-70
2021/11/14 02:15:08;;;;;;;;;;;20.50;63.10;;;;;;4956367;28;1950;-70
2021/11/14 02:17:34;;;;;;;;;;;20.50;63.10;;;;;;4956821;28;1251;-70
2021/11/14 02:19:59;;;;;;;;;;;20.50;63.10;;;;;;4972569;28;1338;-70
2021/11/14 02:22:25;;;;;;;;;;;20.50;63.20;;;;;;4965444;28;1353;-70
2021/11/14 02:24:50;;;;;;;;;;;20.50;63.40;;;;;;4971182;28;1165;-70
2021/11/14 02:27:16;;;;;;;;;;;20.40;63.10;;;;;;4956208;29;1287;-70
2021/11/14 02:29:41;;;;;;;;;;;20.40;63.10;;;;;;4956022;29;1164;-70
2021/11/14 02:32:07;;;;;;;;;;;20.40;63.20;;;;;;4955908;28;1346;-70
2021/11/14 02:34:32;;;;;;;;;;;20.40;63.20;;;;;;4970958;28;1899;-70
2021/11/14 02:36:58;;;;;;;;;;;20.40;63.20;;;;;;4954646;29;1280;-70
2021/11/14 02:39:23;;;;;;;;;;;20.40;63.20;;;;;;4956002;29;1305;-71
2021/11/14 02:41:48;;;;;;;;;;;20.40;63.20;;;;;;4974179;23;2414;-68
2021/11/14 02:44:14;;;;;;;;;;;20.40;63.20;;;;;;4963572;28;1380;-68
2021/11/14 02:46:39;;;;;;;;;;;20.40;63.20;;;;;;4975422;28;1384;-67
2021/11/14 02:49:05;;;;;;;;;;;20.40;63.20;;;;;;4975256;28;1702;-68
2021/11/14 02:51:30;;;;;;;;;;;20.40;63.20;;;;;;4973735;28;1666;-68
2021/11/14 02:53:56;;;;;;;;;;;20.40;63.30;;;;;;4973894;28;1903;-68
2021/11/14 02:56:21;;;;;;;;;;;20.40;63.30;;;;;;4975280;28;1648;-68
2021/11/14 02:58:47;;;;;;;;;;;20.40;63.30;;;;;;4974793;28;1312;-68
2021/11/14 03:01:14;;;;;;;;;;;20.40;63.30;;;;;;4974809;28;1368;-67
2021/11/14 03:03:39;;;;;;;;;;;20.40;64.10;;;;;;4973546;28;1443;-68
2021/11/14 03:06:05;;;;;;;;;;;20.40;63.40;;;;;;4973894;28;1618;-68
2021/11/14 03:08:31;;;;;;;;;;;20.40;63.40;;;;;;4973481;28;1363;-68
2021/11/14 03:10:56;;;;;;;;;;;20.40;63.40;;;;;;4974822;28;1663;-68
2021/11/14 03:13:22;;;;;;;;;;;20.40;63.40;;;;;;4974308;28;1966;-68
2021/11/14 03:15:49;;;;;;;;;;;20.40;63.40;;;;;;4973659;28;1721;-68
2021/11/14 03:18:14;;;;;;;;;;;20.40;63.40;;;;;;4974655;28;1703;-68
2021/11/14 03:20:40;;;;;;;;;;;20.40;63.40;;;;;;4989795;28;1738;-68
2021/11/14 03:23:06;;;;;;;;;;;20.40;63.40;;;;;;4976000;28;1404;-68
2021/11/14 03:25:31;;;;;;;;;;;20.40;63.50;;;;;;4974636;28;1457;-67
2021/11/14 03:27:57;;;;;;;;;;;20.40;63.40;;;;;;4974283;28;1484;-67
2021/11/14 03:30:22;;;;;;;;;;;20.40;63.50;;;;;;4973435;28;1333;-68
2021/11/14 03:32:48;;;;;;;;;;;20.40;63.50;;;;;;4974058;28;1433;-67
2021/11/14 03:35:13;;;;;;;;;;;20.40;63.50;;;;;;4973004;28;1899;-67
2021/11/14 03:37:39;;;;;;;;;;;20.40;63.50;;;;;;4974554;28;1632;-67
2021/11/14 03:40:05;;;;;;;;;;;20.30;63.50;;;;;;4974482;28;1729;-68
2021/11/14 03:42:31;;;;;;;;;;;20.30;63.50;;;;;;4959382;28;1534;-68
2021/11/14 03:44:56;;;;;;;;;;;20.30;63.50;;;;;;4974292;28;1378;-68
2021/11/14 03:47:22;;;;;;;;;;;20.30;63.50;;;;;;4974298;28;1288;-67
2021/11/14 03:49:47;;;;;;;;;;;20.30;63.50;;;;;;4973675;28;1373;-67
2021/11/14 03:52:13;;;;;;;;;;;20.30;63.50;;;;;;4973090;28;1690;-67
2021/11/14 03:54:38;;;;;;;;;;;20.30;63.50;;;;;;4973195;28;1907;-67
2021/11/14 03:57:04;;;;;;;;;;;20.30;63.50;;;;;;4973863;28;1303;-68
2021/11/14 03:59:29;;;;;;;;;;;20.30;63.50;;;;;;4974184;28;1640;-68
2021/11/14 04:01:55;;;;;;;;;;;20.30;63.50;;;;;;4973733;28;1275;-68
2021/11/14 04:04:20;;;;;;;;;;;20.30;63.50;;;;;;4974084;28;1386;-68
2021/11/14 04:06:46;;;;;;;;;;;20.30;63.50;;;;;;4973983;28;1474;-67
2021/11/14 04:09:11;;;;;;;;;;;20.30;63.50;;;;;;4974044;28;1733;-67
2021/11/14 04:11:36;;;;;;;;;;;20.30;63.50;;;;;;4972285;28;1472;-68
2021/11/14 04:14:02;;;;;;;;;;;20.30;63.60;;;;;;4972506;28;1972;-68
2021/11/14 04:16:27;;;;;;;;;;;20.30;63.60;;;;;;4973708;28;1405;-67
2021/11/14 04:18:53;;;;;;;;;;;20.30;63.60;;;;;;4964270;28;1234;-67
2021/11/14 04:21:18;;;;;;;;;;;20.30;63.60;;;;;;4969427;28;1442;-68
2021/11/14 04:23:44;;;;;;;;;;;20.30;63.60;;;;;;4955028;28;1222;-68
2021/11/14 04:26:09;;;;;;;;;;;20.30;63.60;;;;;;4955380;28;1125;-68
2021/11/14 04:28:35;;;;;;;;;;;20.30;63.70;;;;;;4953722;28;1214;-68
2021/11/14 04:31:00;;;;;;;;;;;20.30;63.60;;;;;;4955280;28;1292;-68
2021/11/14 04:33:26;;;;;;;;;;;20.30;63.60;;;;;;4969850;28;1903;-68
2021/11/14 04:35:51;;;;;;;;;;;20.30;63.70;;;;;;4973221;28;1469;-68
2021/11/14 04:38:17;;;;;;;;;;;20.30;63.70;;;;;;4958206;28;1233;-70
2021/11/14 04:40:42;;;;;;;;;;;20.30;63.70;;;;;;4957525;28;1332;-67
2021/11/14 04:43:08;;;;;;;;;;;20.30;63.70;;;;;;4971472;28;1258;-69
2021/11/14 04:45:34;;;;;;;;;;;20.30;63.70;;;;;;4958238;28;1198;-69
2021/11/14 04:47:59;;;;;;;;;;;20.30;63.70;;;;;;4960300;28;1221;-65
2021/11/14 04:50:25;;;;;;;;;;;20.30;63.60;;;;;;4957622;28;1409;-67
2021/11/14 04:52:51;;;;;;;;;;;20.30;63.70;;;;;;4957705;28;1396;-69
2021/11/14 04:55:16;;;;;;;;;;;20.30;63.60;;;;;;4957699;28;1906;-68
2021/11/14 04:57:42;;;;;;;;;;;20.30;63.50;;;;;;4973076;28;1432;-69
2021/11/14 05:00:09;;;;;;;;;;;20.30;63.50;;;;;;4972275;28;1372;-68
2021/11/14 05:02:34;;;;;;;;;;;20.30;63.40;;;;;;4975821;28;1404;-68
2021/11/14 05:05:00;;;;;;;;;;;20.40;63.40;;;;;;4977333;28;1292;-68
2021/11/14 05:07:25;;;;;;;;;;;20.40;63.20;;;;;;4977594;28;1202;-67
2021/11/14 05:09:50;;;;;;;;;;;20.40;63.10;;;;;;4977284;28;1660;-68
2021/11/14 05:12:16;;;;;;;;;;;20.40;63.10;;;;;;4977112;28;1673;-69
2021/11/14 05:14:41;;;;;;;;;;;20.50;63.00;;;;;;4977060;28;1902;-68
2021/11/14 05:17:07;;;;;;;;;;;20.50;62.90;;;;;;4977237;28;1462;-69
2021/11/14 05:19:32;;;;;;;;;;;20.50;62.80;;;;;;4964633;28;1312;-69
2021/11/14 05:21:58;;;;;;;;;;;20.50;62.70;;;;;;4976519;28;1590;-68
2021/11/14 05:24:23;;;;;;;;;;;20.60;62.70;;;;;;4976833;28;1656;-69
2021/11/14 05:26:50;;;;;;;;;;;20.60;62.70;;;;;;4977279;28;1388;-69
2021/11/14 05:29:16;;;;;;;;;;;20.60;62.50;;;;;;4976869;28;1727;-68
2021/11/14 05:31:41;;;;;;;;;;;20.60;62.50;;;;;;4975492;28;1393;-68
2021/11/14 05:34:06;;;;;;;;;;;20.60;62.40;;;;;;4976591;28;1910;-68
2021/11/14 05:36:32;;;;;;;;;;;20.60;62.40;;;;;;4976717;28;1643;-68
2021/11/14 05:38:58;;;;;;;;;;;20.60;62.30;;;;;;4975295;28;1441;-68
2021/11/14 05:41:23;;;;;;;;;;;20.70;62.40;;;;;;4968086;28;1498;-69
2021/11/14 05:43:49;;;;;;;;;;;20.70;62.30;;;;;;4969167;28;1662;-68
2021/11/14 05:46:14;;;;;;;;;;;20.70;62.30;;;;;;4974210;28;1650;-68
2021/11/14 05:48:40;;;;;;;;;;;20.70;62.20;;;;;;4976509;28;1351;-68
2021/11/14 05:51:05;;;;;;;;;;;20.70;62.20;;;;;;4975962;28;1378;-67
2021/11/14 05:53:30;;;;;;;;;;;20.70;62.10;;;;;;4976399;28;1910;-68
2021/11/14 05:55:56;;;;;;;;;;;20.70;62.10;;;;;;4976443;28;1365;-67
2021/11/14 05:58:43;;;;;;;;;;;20.70;62.10;;;;;;4976224;28;1446;-68
2021/11/14 06:01:17;;;;;;;;;;;20.70;62.10;;;;;;4976126;28;1359;-68
2021/11/14 06:06:08;;;;;;;;;;;20.70;62.00;;;;;;4976053;28;1692;-68
2021/11/14 06:08:34;;;;;;;;;;;20.70;62.00;;;;;;4991213;28;1791;-68
2021/11/14 06:10:59;;;;;;;;;;;20.70;61.90;;;;;;4975869;28;1404;-67
2021/11/14 06:13:25;;;;;;;;;;;20.70;62.70;;;;;;4975888;28;1899;-68
2021/11/14 06:15:51;;;;;;;;;;;20.70;61.90;;;;;;4974908;28;1395;-68
2021/11/14 06:18:16;;;;;;;;;;;20.70;61.90;;;;;;4974794;28;1432;-68
2021/11/14 06:20:43;;;;;;;;;;;20.70;61.90;;;;;;4974480;28;1412;-68
2021/11/14 06:23:09;;;;;;;;;;;20.70;61.80;;;;;;4972886;28;1391;-68
2021/11/14 06:25:34;;;;;;;;;;;20.70;61.80;;;;;;4971650;28;1405;-68
2021/11/14 06:28:00;;;;;;;;;;;20.70;61.80;;;;;;4973616;28;1451;-68
2021/11/14 06:30:25;;;;;;;;;;;20.70;61.80;;;;;;4965311;28;1697;-68
2021/11/14 06:32:51;;;;;;;;;;;20.80;61.90;;;;;;4961944;28;1445;-68
2021/11/14 06:35:16;;;;;;;;;;;20.80;61.80;;;;;;4964565;28;1974;-69
2021/11/14 06:37:42;;;;;;;;;;;20.80;61.80;;;;;;4957825;28;1296;-68
2021/11/14 06:40:08;;;;;;;;;;;20.80;61.80;;;;;;4968318;28;1162;-69
2021/11/14 06:42:34;;;;;;;;;;;20.80;61.80;;;;;;4954688;28;1370;-68
2021/11/14 06:44:59;;;;;;;;;;;20.80;61.80;;;;;;4956890;28;1213;-68
2021/11/14 06:47:25;;;;;;;;;;;20.80;61.80;;;;;;4959748;28;1336;-68
2021/11/14 06:49:52;;;;;;;;;;;20.80;61.80;;;;;;4954608;29;1087;-68
2021/11/14 06:52:17;;;;;;;;;;;20.80;61.80;;;;;;4955988;28;1388;-67
2021/11/14 06:54:43;;;;;;;;;;;20.80;61.70;;;;;;4955864;28;1895;-67
2021/11/14 06:57:08;;;;;;;;;;;20.80;61.70;;;;;;4956798;28;1345;-68
2021/11/14 06:59:37;;;;;;;;;;;20.80;61.80;;;;;;4957027;28;1363;-68
2021/11/14 07:02:02;;;;;;;;;;;20.80;61.70;;;;;;4956793;28;1622;-68
2021/11/14 07:04:28;;;;;;;;;;;20.80;62.50;;;;;;4955240;28;1256;-69
2021/11/14 07:06:53;;;;;;;;;;;20.80;61.70;;;;;;4956911;28;1378;-68
2021/11/14 07:09:18;;;;;;;;;;;20.80;61.70;;;;;;4956081;28;1202;-69
2021/11/14 07:11:44;;;;;;;;;;;20.80;61.70;;;;;;4958321;28;1356;-68
2021/11/14 07:14:09;;;;;;;;;;;20.80;61.70;;;;;;4954229;29;1930;-68
2021/11/14 07:16:35;;;;;;;;;;;20.80;61.70;;;;;;4954424;28;1228;-68
2021/11/14 07:19:02;;;;;;;;;;;20.80;61.70;;;;;;4969046;28;1308;-66
2021/11/14 07:21:27;;;;;;;;;;;20.80;61.70;;;;;;4960047;28;1503;-67
2021/11/14 07:23:53;;;;;;;;;;;20.80;61.70;;;;;;4973608;28;1388;-66
2021/11/14 07:26:18;;;;;;;;;;;20.80;61.60;;;;;;4974651;28;1414;-67
2021/11/14 07:28:44;;;;;;;;;;;20.80;61.70;;;;;;4973523;28;1389;-67
2021/11/14 07:31:09;;;;;;;;;;;20.80;61.60;;;;;;4973174;28;1676;-68
2021/11/14 07:33:35;;;;;;;;;;;20.80;61.60;;;;;;4974526;28;1960;-68
2021/11/14 07:36:01;;;;;;;;;;;20.80;61.70;;;;;;4973381;28;1497;-68
2021/11/14 07:38:27;;;;;;;;;;;20.80;61.70;;;;;;4974759;28;1362;-68
2021/11/14 07:40:52;;;;;;;;;;;20.80;61.60;;;;;;4971678;28;1375;-67
2021/11/14 07:43:18;;;;;;;;;;;20.90;61.50;;;;;;4969938;28;1470;-67
2021/11/14 07:45:43;;;;;;;;;;;21.00;61.40;;;;;;4970717;28;1721;-67
2021/11/14 07:48:10;;;;;;;;;;;21.10;61.30;;;;;;4973063;28;1660;-67
2021/11/14 07:50:36;;;;;;;;;;;21.20;61.10;;;;;;4973975;28;1689;-67
2021/11/14 07:53:01;;;;;;;;;;;21.20;60.90;;;;;;4974114;28;1679;-66
2021/11/14 07:55:27;;;;;;;;;;;21.30;60.70;;;;;;4973165;28;1903;-67
2021/11/14 07:57:52;;;;;;;;;;;21.40;60.40;;;;;;4963686;28;2270;-67
2021/11/14 08:00:19;;;;;;;;;;;21.50;60.10;;;;;;4970272;28;2152;-67
2021/11/14 08:02:44;;;;;;;;;;;21.60;59.90;;;;;;4953025;28;1444;-68
2021/11/14 08:05:10;;;;;;;;;;;21.60;59.70;;;;;;4969689;28;1437;-69
2021/11/14 08:07:35;;;;;;;;;;;21.70;59.60;;;;;;4973219;28;1596;-70
2021/11/14 08:10:01;;;;;;;;;;;21.80;59.40;;;;;;4972320;28;1674;-71
2021/11/14 08:12:26;;;;;;;;;;;21.80;59.30;;;;;;4974014;28;1399;-68
2021/11/14 08:14:51;;;;;;;;;;;21.90;59.20;;;;;;4956232;28;2294;-68
2021/11/14 08:17:17;;;;;;;;;;;21.90;59.00;;;;;;4957468;28;1608;-67
2021/11/14 08:19:43;;;;;;;;;;;22.00;58.90;;;;;;4969988;28;1632;-68
2021/11/14 08:22:08;;;;;;;;;;;22.00;58.80;;;;;;4973825;28;1542;-68
2021/11/14 08:24:34;;;;;;;;;;;22.10;58.80;;;;;;4974089;28;1450;-68
2021/11/14 08:26:59;;;;;;;;;;;22.10;58.70;;;;;;4974184;28;1683;-68
2021/11/14 08:29:24;;;;;;;;;;;22.10;58.90;;;;;;4974065;28;1386;-69
2021/11/14 08:31:50;;;;;;;;;;;22.10;58.60;;;;;;4972598;28;1562;-69
2021/11/14 08:34:15;;;;;;;;;;;22.20;58.50;;;;;;4973791;28;1978;-69
2021/11/14 08:36:41;;;;;;;;;;;22.20;58.50;;;;;;4972943;28;1607;-69
2021/11/14 08:39:06;;;;;;;;;;;22.20;58.50;;;;;;4974109;28;1564;-69
2021/11/14 08:44:04;;;;;;;;;;;22.30;58.40;;;;;;4989881;28;2060;-71
2021/11/14 08:46:31;;;;;;;;;;;22.30;58.40;;;;;;4993452;28;1393;-70
2021/11/14 08:48:57;;;;;;;;;;;22.30;58.40;;;;;;4993266;28;1462;-70
2021/11/14 08:51:24;;;;;;;;;;;22.30;58.30;;;;;;4993298;28;1033;-70
2021/11/14 08:53:49;;;;;;;;;;;22.30;58.30;;;;;;4993218;28;1887;-70
2021/11/14 08:56:15;;;;;;;;;;;22.30;58.20;;;;;;4993212;28;1367;-70
2021/11/14 08:58:40;;;;;;;;;;;22.40;58.30;;;;;;5008495;28;1413;-70
2021/11/14 09:01:07;;;;;;;;;;;22.40;58.20;;;;;;4993017;28;1052;-71
2021/11/14 09:03:32;;;;;;;;;;;22.40;58.30;;;;;;5008193;28;1459;-70
2021/11/14 09:05:58;;;;;;;;;;;22.40;58.20;;;;;;4992021;28;1645;-70
2021/11/14 09:08:23;;;;;;;;;;;22.40;58.20;;;;;;5008222;28;1706;-70
2021/11/14 09:10:49;;;;;;;;;;;22.40;58.20;;;;;;5008096;28;1716;-70
2021/11/14 09:13:15;;;;;;;;;;;22.50;58.20;;;;;;4995631;28;1629;-70
2021/11/14 09:15:41;;;;;;;;;;;22.50;58.20;;;;;;4993163;28;1890;-71
2021/11/14 09:18:06;;;;;;;;;;;22.50;58.20;;;;;;5008310;28;1301;-71
2021/11/14 09:20:32;;;;;;;;;;;22.50;58.20;;;;;;4994524;28;1171;-70
2021/11/14 09:22:58;;;;;;;;;;;22.50;58.20;;;;;;4995119;28;1504;-71
2021/11/14 09:25:23;;;;;;;;;;;22.50;58.20;;;;;;4995073;28;2157;-70
2021/11/14 09:27:49;;;;;;;;;;;22.50;58.20;;;;;;5011709;28;1275;-70
2021/11/14 09:30:15;;;;;;;;;;;22.50;58.10;;;;;;4996491;28;1364;-70
2021/11/14 09:32:40;;;;;;;;;;;22.50;58.10;;;;;;4996164;28;1699;-70
2021/11/14 09:35:06;;;;;;;;;;;22.50;58.20;;;;;;4996280;28;1959;-70
2021/11/14 09:37:31;;;;;;;;;;;22.50;58.10;;;;;;4996382;28;1382;-70
2021/11/14 09:39:57;;;;;;;;;;;22.50;58.10;;;;;;4996143;28;1684;-70
2021/11/14 09:42:26;;;;;;;;;;;22.40;58.10;;;;;;4995709;28;1628;-70
2021/11/14 09:44:51;;;;;;;;;;;22.50;58.20;;;;;;4996070;28;1675;-70
2021/11/14 09:47:17;;;;;;;;;;;22.50;58.10;;;;;;4996030;28;1433;-71
2021/11/14 09:49:42;;;;;;;;;;;22.50;58.10;;;;;;5011256;28;1432;-70
2021/11/14 09:52:07;;;;;;;;;;;22.50;58.20;;;;;;4992493;28;2097;-70
2021/11/14 09:54:33;;;;;;;;;;;22.50;58.20;;;;;;5018800;28;1911;-70
2021/11/14 09:56:59;;;;;;;;;;;22.40;58.20;;;;;;4991480;28;1259;-70
2021/11/14 09:59:24;;;;;;;;;;;22.50;58.20;;;;;;4995700;28;1402;-70
2021/11/14 10:01:50;;;;;;;;;;;22.40;58.20;;;;;;4999421;28;1803;-72
2021/11/14 10:04:15;;;;;;;;;;;22.40;58.20;;;;;;5002909;28;852;-69
2021/11/14 10:06:40;;;;;;;;;;;22.40;58.30;;;;;;5005303;28;1365;-71
2021/11/14 10:09:06;;;;;;;;;;;22.40;58.30;;;;;;4995588;28;1391;-70
2021/11/14 10:11:35;;;;;;;;;;;22.40;58.30;;;;;;4995731;28;1289;-70
2021/11/14 10:14:01;;;;;;;;;;;22.40;58.40;;;;;;5008960;28;1914;-71
2021/11/14 10:16:27;;;;;;;;;;;22.30;58.40;;;;;;4995242;28;1633;-70
2021/11/14 10:18:59;;;;;;;;;;;22.30;58.40;;;;;;4995457;28;1643;-71
2021/11/14 10:21:25;;;;;;;;;;;22.30;58.50;;;;;;5009817;28;1483;-71
2021/11/14 10:23:51;;;;;;;;;;;22.30;58.50;;;;;;5010236;28;1750;-71
2021/11/14 10:26:16;;;;;;;;;;;22.30;58.60;;;;;;4995336;28;1592;-71
2021/11/14 10:28:45;;;;;;;;;;;22.20;58.60;;;;;;5009885;28;1602;-71
2021/11/14 10:31:11;;;;;;;;;;;22.20;58.60;;;;;;4993832;28;2237;-72
2021/11/14 10:33:36;;;;;;;;;;;22.20;58.70;;;;;;4994201;28;1962;-72
2021/11/14 10:36:02;;;;;;;;;;;22.20;58.70;;;;;;4995095;28;1674;-72
2021/11/14 10:38:29;;;;;;;;;;;22.20;58.80;;;;;;5004634;28;1519;-72
2021/11/14 10:40:58;;;;;;;;;;;22.20;58.80;;;;;;4996398;28;1384;-72
2021/11/14 10:43:23;;;;;;;;;;;22.20;58.80;;;;;;4994411;28;1592;-71
2021/11/14 10:45:49;;;;;;;;;;;22.20;58.80;;;;;;4994941;28;1704;-72
2021/11/14 10:48:18;;;;;;;;;;;22.20;58.80;;;;;;4994831;28;1579;-69
2021/11/14 10:50:44;;;;;;;;;;;22.20;58.80;;;;;;4994718;28;1608;-73
2021/11/14 10:53:11;;;;;;;;;;;22.20;58.80;;;;;;4994584;28;1339;-71
2021/11/14 10:55:43;;;;;;;;;;;22.20;58.80;;;;;;5009572;28;1964;-70
2021/11/14 10:58:09;;;;;;;;;;;22.20;58.70;;;;;;5009938;28;1492;-70
2021/11/14 11:00:34;;;;;;;;;;;22.30;58.80;;;;;;4994523;28;1632;-71
2021/11/14 11:03:00;;;;;;;;;;;22.30;58.70;;;;;;4993989;28;1409;-70
2021/11/14 11:05:26;;;;;;;;;;;22.30;58.60;;;;;;4994635;28;1619;-70
2021/11/14 11:07:58;;;;;;;;;;;22.30;58.60;;;;;;4994408;28;1345;-71
2021/11/14 11:10:24;;;;;;;;;;;22.30;58.50;;;;;;4992968;28;1400;-70
2021/11/14 11:12:50;;;;;;;;;;;22.40;58.50;;;;;;5009697;28;1377;-70
2021/11/14 11:15:15;;;;;;;;;;;22.40;58.50;;;;;;4994184;28;1898;-71
2021/11/14 11:17:45;;;;;;;;;;;22.40;58.50;;;;;;4994513;28;1650;-70
2021/11/14 11:20:11;;;;;;;;;;;22.40;58.50;;;;;;5009027;28;1701;-70
2021/11/14 11:22:47;;;;;;;;;;;22.40;58.40;;;;;;4994208;28;1396;-70
2021/11/14 11:25:12;;;;;;;;;;;22.40;59.00;;;;;;4994806;28;812;-71
2021/11/14 11:27:38;;;;;;;;;;;22.40;58.40;;;;;;5009549;28;1696;-70
2021/11/14 11:30:03;;;;;;;;;;;22.40;58.40;;;;;;4994204;28;1704;-73
2021/11/14 11:32:29;;;;;;;;;;;22.40;58.40;;;;;;4994013;28;1393;-72
2021/11/14 11:34:54;;;;;;;;;;;22.40;58.40;;;;;;4994161;28;1899;-71
2021/11/14 11:37:19;;;;;;;;;;;22.40;58.40;;;;;;4992862;28;1638;-71
2021/11/14 11:39:45;;;;;;;;;;;22.40;58.40;;;;;;4994035;28;1464;-72
2021/11/14 11:42:10;;;;;;;;;;;22.40;58.40;;;;;;4993534;28;1506;-71
2021/11/14 11:44:36;;;;;;;;;;;22.40;58.30;;;;;;5009288;28;1290;-72
2021/11/14 11:47:03;;;;;;;;;;;22.50;58.40;;;;;;4989046;28;1649;-71
2021/11/14 11:49:28;;;;;;;;;;;22.50;58.40;;;;;;5006108;28;1691;-71
2021/11/14 11:51:55;;;;;;;;;;;22.40;58.40;;;;;;5007807;28;1665;-71
2021/11/14 11:54:21;;;;;;;;;;;22.40;58.40;;;;;;4993258;28;1974;-72
2021/11/14 11:56:56;;;;;;;;;;;22.40;58.40;;;;;;5008250;28;1585;-71
2021/11/14 11:59:25;;;;;;;;;;;22.40;58.40;;;;;;5008313;28;1692;-71
2021/11/14 12:01:52;;;;;;;;;;;22.40;58.40;;;;;;5007656;28;1272;-71
2021/11/14 12:04:21;;;;;;;;;;;22.40;58.50;;;;;;4992850;28;1406;-71
2021/11/14 12:06:47;;;;;;;;;;;22.40;58.50;;;;;;5007296;28;1354;-71
2021/11/14 12:09:13;;;;;;;;;;;22.40;58.50;;;;;;4993241;28;1688;-71
2021/11/14 12:11:40;;;;;;;;;;;22.40;58.50;;;;;;5007936;28;1350;-71
2021/11/14 12:14:14;;;;;;;;;;;22.40;58.50;;;;;;4992678;28;2149;-72
2021/11/14 12:16:40;;;;;;;;;;;22.40;58.50;;;;;;4993324;28;1404;-71
2021/11/14 12:19:05;;;;;;;;;;;22.40;58.50;;;;;;4993532;28;1131;-72
2021/11/14 12:21:31;;;;;;;;;;;22.40;58.50;;;;;;4993030;28;1637;-72
2021/11/14 12:23:58;;;;;;;;;;;22.40;58.50;;;;;;5008766;28;1626;-72
2021/11/14 12:26:27;;;;;;;;;;;22.40;58.50;;;;;;4993502;28;1223;-71
2021/11/14 12:28:54;;;;;;;;;;;22.40;58.50;;;;;;4993593;28;1693;-71
2021/11/14 12:31:28;;;;;;;;;;;22.40;58.50;;;;;;5008232;28;1419;-71
2021/11/14 12:34:07;;;;;;;;;;;22.40;58.50;;;;;;4993408;28;1976;-72
2021/11/14 12:36:36;;;;;;;;;;;22.40;58.50;;;;;;4993269;28;1655;-71
2021/11/14 12:39:08;;;;;;;;;;;22.40;58.50;;;;;;4990151;28;1148;-71
2021/11/14 12:41:33;;;;;;;;;;;22.40;58.50;;;;;;4992451;28;1462;-71
2021/11/14 12:43:59;;;;;;;;;;;22.40;58.50;;;;;;4992601;28;1232;-71
2021/11/14 12:46:25;;;;;;;;;;;22.40;58.50;;;;;;4992892;28;1248;-72
2021/11/14 12:48:51;;;;;;;;;;;22.40;58.50;;;;;;4991059;28;1826;-73
2021/11/14 12:51:17;;;;;;;;;;;22.40;58.50;;;;;;4991423;28;1055;-71
2021/11/14 12:54:03;;;;;;;;;;;22.40;58.50;;;;;;4992914;28;1914;-70
2021/11/14 12:56:32;;;;;;;;;;;22.50;58.60;;;;;;4988580;28;1253;-71
2021/11/14 12:58:58;;;;;;;;;;;22.40;58.50;;;;;;5012047;28;1311;-72
2021/11/14 13:01:25;;;;;;;;;;;22.40;58.50;;;;;;4996546;28;1319;-69
2021/11/14 13:03:51;;;;;;;;;;;22.40;58.60;;;;;;4993128;28;1695;-68
2021/11/14 13:06:18;;;;;;;;;;;22.40;58.60;;;;;;4996628;28;1260;-69
2021/11/14 13:08:43;;;;;;;;;;;22.40;58.70;;;;;;4996394;28;1267;-69
2021/11/14 13:11:18;;;;;;;;;;;22.30;58.70;;;;;;4996184;28;1292;-69
2021/11/14 13:13:43;;;;;;;;;;;22.30;58.70;;;;;;4996668;28;1894;-71
2021/11/14 13:16:10;;;;;;;;;;;22.30;58.80;;;;;;4995935;28;1192;-69
2021/11/14 13:18:35;;;;;;;;;;;22.30;58.90;;;;;;5011094;28;1308;-67
2021/11/14 13:21:03;;;;;;;;;;;22.20;58.90;;;;;;4993668;28;1221;-69
2021/11/14 13:23:28;;;;;;;;;;;22.20;59.00;;;;;;4994945;28;1626;-66
2021/11/14 13:26:07;;;;;;;;;;;22.20;59.10;;;;;;4995042;28;1284;-67
2021/11/14 13:28:33;;;;;;;;;;;22.20;59.10;;;;;;4993678;28;1217;-66
2021/11/14 13:30:58;;;;;;;;;;;22.20;59.10;;;;;;4994645;28;1394;-68
2021/11/14 13:33:24;;;;;;;;;;;22.20;59.20;;;;;;4993606;28;1436;-68
2021/11/14 13:35:49;;;;;;;;;;;22.10;59.20;;;;;;4994864;28;1994;-69
2021/11/14 13:38:15;;;;;;;;;;;22.10;59.20;;;;;;4995841;28;1373;-70
2021/11/14 13:40:40;;;;;;;;;;;22.10;59.20;;;;;;4996130;28;1657;-71
2021/11/14 13:43:06;;;;;;;;;;;22.10;59.20;;;;;;4995266;28;1265;-70
2021/11/14 13:45:33;;;;;;;;;;;22.10;59.30;;;;;;5011270;28;1433;-71
2021/11/14 13:48:00;;;;;;;;;;;22.10;59.20;;;;;;5011191;28;1604;-71
2021/11/14 13:50:28;;;;;;;;;;;22.10;59.30;;;;;;4994723;28;2065;-71
2021/11/14 13:53:02;;;;;;;;;;;22.10;59.30;;;;;;4995313;28;1607;-70
2021/11/14 13:55:28;;;;;;;;;;;22.10;59.30;;;;;;4993121;28;1898;-71
2021/11/14 13:57:54;;;;;;;;;;;22.10;59.30;;;;;;4995782;28;1281;-70
2021/11/14 14:00:23;;;;;;;;;;;22.10;59.30;;;;;;5002859;28;1144;-71
2021/11/14 14:02:48;;;;;;;;;;;22.10;59.40;;;;;;5009899;28;1607;-71
2021/11/14 14:05:14;;;;;;;;;;;22.10;59.40;;;;;;4995588;28;1692;-69
2021/11/14 14:07:40;;;;;;;;;;;22.10;59.40;;;;;;4994634;28;1340;-69
2021/11/14 14:10:12;;;;;;;;;;;22.10;59.40;;;;;;5010685;28;1647;-70
2021/11/14 14:12:42;;;;;;;;;;;22.00;59.40;;;;;;5010186;28;1737;-70
2021/11/14 14:15:12;;;;;;;;;;;22.00;59.40;;;;;;5010727;28;1937;-70
2021/11/14 14:17:37;;;;;;;;;;;22.00;59.40;;;;;;5010454;28;1599;-71
2021/11/14 14:20:03;;;;;;;;;;;22.00;59.40;;;;;;4995325;28;1598;-71
2021/11/14 14:22:35;;;;;;;;;;;22.00;59.50;;;;;;4995433;28;1676;-70
2021/11/14 14:25:00;;;;;;;;;;;22.00;59.50;;;;;;4995666;28;1543;-72
2021/11/14 14:27:26;;;;;;;;;;;22.00;59.50;;;;;;5010379;28;1680;-72
2021/11/14 14:29:55;;;;;;;;;;;22.00;59.50;;;;;;5003951;28;1828;-67